createdAt,value
2023-09-18T00:01:29.966Z,7.47
2023-09-18T00:06:38.027Z,7.93
2023-09-18T00:11:49.479Z,8.67
2023-09-18T00:17:02.383Z,6.75
2023-09-18T00:22:17.891Z,8.27
2023-09-18T00:27:21.569Z,7.57
2023-09-18T00:32:42.469Z,8.05
2023-09-18T00:37:48.352Z,7.82
2023-09-18T00:43:11.307Z,7.37
2023-09-18T00:48:25.208Z,8.00
2023-09-18T00:53:29.880Z,8.23
2023-09-18T00:58:36.383Z,7.20
2023-09-18T01:03:50.302Z,6.70
2023-09-18T01:09:03.595Z,7.20
2023-09-18T01:14:25.622Z,5.82
2023-09-18T01:19:51.060Z,5.93
2023-09-18T01:25:00.145Z,6.70
2023-09-18T01:30:11.529Z,11.38
2023-09-18T01:35:21.466Z,8.00
2023-09-18T01:40:33.977Z,7.90
2023-09-18T01:45:46.772Z,7.38
2023-09-18T01:50:55.170Z,6.80
2023-09-18T01:56:11.457Z,6.63
2023-09-18T02:01:32.733Z,6.70
2023-09-18T02:06:39.368Z,6.60
2023-09-18T02:11:49.169Z,7.50
2023-09-18T02:17:01.628Z,7.57
2023-09-18T02:22:15.514Z,7.28
2023-09-18T02:27:58.474Z,7.17
2023-09-18T02:33:21.079Z,8.02
2023-09-18T02:38:29.978Z,7.73
2023-09-18T02:43:52.607Z,8.20
2023-09-18T02:48:59.653Z,8.13
2023-09-18T02:54:10.181Z,7.22
2023-09-18T02:59:34.248Z,7.40
2023-09-18T03:04:39.529Z,7.57
2023-09-18T03:09:58.883Z,8.18
2023-09-18T03:15:18.315Z,7.53
2023-09-18T03:20:25.417Z,7.63
2023-09-18T03:25:48.965Z,7.40
2023-09-18T03:31:16.744Z,7.20
2023-09-18T03:36:26.696Z,7.93
2023-09-18T03:47:00.488Z,8.20
2023-09-18T03:52:11.915Z,7.78
2023-09-18T03:57:20.847Z,8.70
2023-09-18T04:02:32.227Z,8.13
2023-09-18T04:07:39.815Z,8.85
2023-09-18T04:12:45.911Z,9.18
2023-09-18T04:18:06.662Z,9.10
2023-09-18T04:23:27.224Z,10.25
2023-09-18T04:28:36.821Z,10.02
2023-09-18T04:33:54.137Z,11.13
2023-09-18T04:39:05.524Z,9.82
2023-09-18T04:44:13.380Z,9.98
2023-09-18T04:49:19.992Z,10.60
2023-09-18T04:54:32.268Z,9.57
2023-09-18T04:59:39.513Z,8.80
2023-09-18T05:04:55.380Z,9.30
2023-09-18T05:10:05.011Z,10.88
2023-09-18T05:15:12.858Z,10.05
2023-09-18T05:32:05.558Z,10.75
2023-09-18T05:37:08.241Z,9.80
2023-09-18T05:42:12.719Z,9.83
2023-09-18T05:47:20.631Z,8.68
2023-09-18T05:52:26.933Z,8.88
2023-09-18T05:57:29.960Z,9.80
2023-09-18T06:02:34.349Z,10.85
2023-09-18T06:07:41.486Z,12.90
2023-09-18T06:12:44.354Z,10.10
2023-09-18T06:17:51.349Z,9.15
2023-09-18T06:22:54.686Z,10.68
2023-09-18T06:27:57.722Z,9.80
2023-09-18T06:33:02.543Z,9.65
2023-09-18T06:38:08.051Z,9.30
2023-09-18T06:43:12.115Z,10.00
2023-09-18T06:48:20.735Z,11.20
2023-09-18T06:53:34.161Z,11.43
2023-09-18T06:58:41.404Z,9.13
2023-09-18T07:03:50.328Z,8.03
2023-09-18T07:08:53.603Z,10.07
2023-09-18T07:13:56.373Z,7.70
2023-09-18T07:19:00.244Z,8.77
2023-09-18T07:24:03.201Z,8.88
2023-09-18T07:29:11.672Z,8.73
2023-09-18T07:34:16.218Z,6.57
2023-09-18T07:39:19.228Z,7.72
2023-09-18T07:44:26.159Z,6.03
2023-09-18T07:49:31.937Z,7.33
2023-09-18T07:54:34.446Z,6.87
2023-09-18T07:59:37.232Z,5.95
2023-09-18T08:04:44.840Z,5.65
2023-09-18T08:09:47.441Z,5.60
2023-09-18T08:14:50.380Z,6.22
2023-09-18T08:20:00.905Z,5.60
2023-09-18T08:25:05.612Z,4.43
2023-09-18T08:30:10.070Z,5.30
2023-09-18T08:35:15.005Z,5.63
2023-09-18T08:40:18.151Z,5.37
2023-09-18T08:45:28.796Z,5.47
2023-09-18T08:50:34.400Z,5.40
2023-09-18T08:55:47.083Z,4.45
2023-09-18T09:00:50.937Z,4.40
2023-09-18T09:05:55.828Z,5.22
2023-09-18T09:10:58.830Z,4.20
2023-09-18T09:16:01.867Z,4.73
2023-09-18T09:21:06.860Z,4.47
2023-09-18T09:26:21.252Z,3.97
2023-09-18T09:31:26.712Z,3.93
2023-09-18T09:36:32.610Z,4.53
2023-09-18T09:41:35.583Z,4.28
2023-09-18T09:46:48.199Z,4.13
2023-09-18T09:51:52.899Z,4.47
2023-09-18T09:56:55.751Z,3.97
2023-09-18T10:02:20.470Z,3.72
2023-09-18T10:07:25.163Z,4.27
2023-09-18T10:12:31.035Z,3.92
2023-09-18T10:17:37.878Z,4.43
2023-09-18T10:22:47.082Z,3.40
2023-09-18T10:27:52.775Z,4.10
2023-09-18T10:32:57.752Z,3.80
2023-09-18T10:38:03.909Z,4.40
2023-09-18T10:43:12.158Z,3.30
2023-09-18T10:48:18.143Z,3.40
2023-09-18T10:53:26.324Z,3.05
2023-09-18T10:58:29.412Z,3.37
2023-09-18T11:03:35.261Z,3.42
2023-09-18T11:08:47.268Z,3.40
2023-09-18T11:13:53.109Z,3.37
2023-09-18T11:19:19.992Z,3.10
2023-09-18T11:24:31.267Z,4.20
2023-09-18T11:29:42.924Z,4.13
2023-09-18T11:34:47.462Z,3.80
2023-09-18T11:39:51.843Z,3.70
2023-09-18T11:44:55.671Z,4.85
2023-09-18T11:50:00.955Z,4.37
2023-09-18T11:55:09.741Z,5.00
2023-09-18T12:00:20.571Z,5.65
2023-09-18T12:05:24.491Z,5.60
2023-09-18T12:10:29.211Z,6.70
2023-09-18T12:15:32.505Z,6.15
2023-09-18T12:20:41.838Z,7.13
2023-09-18T12:26:08.287Z,8.20
2023-09-18T12:31:12.733Z,6.90
2023-09-18T12:36:20.933Z,8.95
2023-09-18T12:41:32.538Z,9.33
2023-09-18T12:46:36.711Z,7.50
2023-09-18T12:51:39.355Z,8.20
2023-09-18T12:56:43.910Z,8.33
2023-09-18T13:01:49.258Z,7.63
2023-09-18T13:07:12.297Z,8.70
2023-09-18T13:12:16.472Z,8.48
2023-09-18T13:17:19.039Z,8.33
2023-09-18T13:22:25.801Z,10.07
2023-09-18T13:27:31.123Z,8.52
2023-09-18T13:32:39.103Z,7.60
2023-09-18T13:37:51.193Z,7.85
2023-09-18T13:42:55.210Z,8.27
2023-09-18T13:47:57.913Z,7.23
2023-09-18T13:53:03.370Z,7.30
2023-09-18T13:58:08.127Z,7.00
2023-09-18T14:03:10.795Z,7.50
2023-09-18T14:08:13.266Z,6.73
2023-09-18T14:13:17.102Z,7.20
2023-09-18T14:18:19.746Z,6.80
2023-09-18T14:23:22.340Z,7.47
2023-09-18T14:28:26.432Z,6.70
2023-09-18T14:33:29.143Z,7.32
2023-09-18T14:38:31.721Z,6.23
2023-09-18T14:43:35.811Z,6.50
2023-09-18T14:48:38.539Z,7.35
2023-09-18T14:53:41.511Z,6.45
2023-09-18T14:58:45.629Z,6.87
2023-09-18T15:03:48.245Z,6.55
2023-09-18T15:08:50.820Z,7.10
2023-09-18T15:13:54.762Z,6.30
2023-09-18T15:18:58.820Z,5.97
2023-09-18T15:24:01.404Z,6.47
2023-09-18T15:29:05.439Z,6.90
2023-09-18T15:34:08.092Z,7.87
2023-09-18T15:39:10.722Z,6.93
2023-09-18T15:44:15.086Z,6.53
2023-09-18T15:49:17.539Z,6.40
2023-09-18T15:54:19.993Z,6.95
2023-09-18T15:59:26.960Z,7.85
2023-09-18T16:04:29.659Z,7.27
2023-09-18T16:09:34.893Z,9.48
2023-09-18T16:14:38.689Z,9.77
2023-09-18T16:19:41.092Z,8.67
2023-09-18T16:24:43.957Z,9.07
2023-09-18T16:29:47.759Z,8.27
2023-09-18T16:34:50.690Z,8.93
2023-09-18T16:39:53.222Z,8.80
2023-09-18T16:44:57.158Z,9.43
2023-09-18T16:49:59.819Z,10.00
2023-09-18T16:55:02.327Z,8.83
2023-09-18T17:00:08.320Z,10.07
2023-09-18T17:05:10.875Z,9.32
2023-09-18T17:10:13.374Z,9.23
2023-09-18T17:15:25.922Z,9.67
2023-09-18T17:20:30.085Z,9.65
2023-09-18T17:25:32.669Z,8.63
2023-09-18T17:30:36.678Z,8.60
2023-09-18T17:35:40.437Z,9.18
2023-09-18T17:40:43.071Z,9.10
2023-09-18T17:45:50.111Z,8.90
2023-09-18T17:50:52.673Z,9.45
2023-09-18T17:55:56.672Z,10.57
2023-09-18T18:01:00.529Z,10.43
2023-09-18T18:06:08.823Z,10.97
2023-09-18T18:11:11.550Z,11.38
2023-09-18T18:16:15.473Z,9.32
2023-09-18T18:21:18.510Z,9.50
2023-09-18T18:26:23.142Z,10.60
2023-09-18T18:31:27.382Z,9.45
2023-09-18T18:36:30.593Z,10.67
2023-09-18T18:41:33.005Z,9.88
2023-09-18T18:46:37.017Z,9.15
2023-09-18T18:51:39.551Z,9.97
2023-09-18T18:56:42.965Z,9.03
2023-09-18T19:01:55.200Z,9.95
2023-09-18T19:06:58.370Z,8.90
2023-09-18T19:12:04.833Z,10.40
2023-09-18T19:17:09.013Z,8.80
2023-09-18T19:22:14.477Z,9.00
2023-09-18T19:27:17.058Z,9.90
2023-09-18T19:32:24.102Z,9.38
2023-09-18T19:37:26.638Z,8.93
2023-09-18T19:42:29.159Z,8.43
2023-09-18T19:47:33.456Z,7.70
2023-09-18T19:52:36.085Z,9.05
2023-09-18T19:57:38.799Z,8.43
2023-09-18T20:02:43.064Z,8.57
2023-09-18T20:07:46.400Z,7.88
2023-09-18T20:12:52.504Z,8.65
2023-09-18T20:18:15.695Z,8.57
2023-09-18T20:23:18.502Z,8.30
2023-09-18T20:28:20.998Z,7.55
2023-09-18T20:33:24.959Z,8.13
2023-09-18T20:38:30.555Z,8.03
2023-09-18T20:43:33.128Z,7.82
2023-09-18T20:48:37.444Z,7.63
2023-09-18T20:53:40.284Z,7.57
2023-09-18T20:58:42.865Z,8.32
2023-09-18T21:03:46.933Z,8.00
2023-09-18T21:08:49.822Z,8.07
2023-09-18T21:13:55.379Z,8.55
2023-09-18T21:18:59.412Z,7.93
2023-09-18T21:24:02.093Z,8.43
2023-09-18T21:29:04.878Z,7.87
2023-09-18T21:34:08.988Z,7.20
2023-09-18T21:39:11.654Z,7.68
2023-09-18T21:44:14.385Z,7.50
2023-09-18T21:49:18.650Z,7.40
2023-09-18T21:54:21.186Z,7.70
2023-09-18T21:59:23.829Z,7.50
2023-09-18T22:04:27.798Z,7.65
2023-09-18T22:09:30.525Z,7.60
2023-09-18T22:14:33.152Z,8.00
2023-09-18T22:19:37.486Z,8.67
2023-09-18T22:24:40.058Z,8.40
2023-09-18T22:29:43.116Z,7.75
2023-09-18T22:34:46.972Z,8.00
2023-09-18T22:40:02.658Z,8.48
2023-09-18T22:46:01.213Z,8.18
2023-09-18T22:51:59.919Z,9.00
2023-09-18T22:57:04.152Z,7.35
2023-09-18T23:08:57.357Z,10.20
2023-09-18T23:14:02.707Z,8.43
2023-09-18T23:19:05.421Z,8.05
2023-09-18T23:24:08.933Z,7.80
2023-09-18T23:29:12.870Z,8.40
2023-09-18T23:34:15.368Z,8.27
2023-09-18T23:39:18.086Z,8.02
2023-09-18T23:44:22.154Z,7.97
2023-09-18T23:49:24.764Z,8.32
2023-09-18T23:54:30.160Z,8.20
2023-09-18T23:59:33.930Z,7.90
